GRB weather

Austin Straubel International Airport
Green Bay, Wisconsin, United States

Public forecast

Using degrees Fahrenheit for public forecast. Weather courtesy of forecast.io.

Current aviation weather report (METAR) for Austin Straubel International Airport

Retrieved 2019/10/21 21:26 UTC (16 minutes ago):

KGRB 212126Z 16019G27KT 10SM SCT014 16/13 A2932 RMK AO2 PK WND 17031/2056 P0001 T01560128

Aviation forecast (TAF) for Austin Straubel International Airport

Retrieved 2019/10/21 21:30 UTC (12 minutes ago):

TAF COR KGRB 212128Z 2121/2218 17018G28KT P6SM VCSH BKN025 WS020/20040KT FM212300 18013G20KT P6SM BKN040 FM220800 18013G20KT P6SM -SHRA BKN015 OVC024 WS020/20040KT FM221000 19013G23KT 5SM -SHRA OVC009 FM221500 23016G28KT 6SM -SHRA BR OVC015